Currently 76°F in Simi Valley, California, USA
76°F
78°F / 51°F
6 mph W
0.00"
Sunday, May 24, 2020 5:41 PM PDT

Simi Valley, California Climate Summary
Typical March Day

Normal High:    70.5°F (21.4°C)
Normal Low:    48.7°F (9.3°C)
Average:    58.6°F (14.8°C)

Hour    Temperature    Wind Speed    Humidity
12:00 AM    54°F (12°C)    2 mph    69%
1:00 AM    53°F (12°C)    2 mph    70%
2:00 AM    52°F (11°C)    2 mph    71%
3:00 AM    52°F (11°C)    2 mph    71%
4:00 AM    52°F (11°C)    2 mph    72%
5:00 AM    51°F (11°C)    2 mph    72%
6:00 AM    51°F (10°C)    2 mph    73%
7:00 AM    51°F (10°C)    3 mph    73%
8:00 AM    52°F (11°C)    3 mph    72%
9:00 AM    56°F (13°C)    3 mph    68%
10:00 AM    60°F (16°C)    4 mph    61%
11:00 AM    64°F (18°C)    4 mph    53%
12:00 PM    67°F (19°C)    5 mph    49%
1:00 PM    68°F (20°C)    6 mph    46%
2:00 PM    69°F (20°C)    6 mph    46%
3:00 PM    68°F (20°C)    6 mph    48%
4:00 PM    68°F (20°C)    6 mph    49%
5:00 PM    66°F (19°C)    5 mph    51%
6:00 PM    64°F (18°C)    4 mph    55%
7:00 PM    61°F (16°C)    3 mph    60%
8:00 PM    59°F (15°C)    2 mph    64%
9:00 PM    57°F (14°C)    2 mph    67%
10:00 PM    55°F (13°C)    2 mph    68%
11:00 PM    54°F (12°C)    2 mph    69%
 

The Simi Valley, California weather pages are a service of WeatherCurrents.
Copyright ©2020  WeatherCurrents. All rights reserved. - Submit questions and comments - Privacy Policy